createdAt,value
2022-08-20T00:01:02.341Z,99.90
2022-08-20T00:03:34.950Z,99.90
2022-08-20T00:06:06.760Z,99.90
2022-08-20T00:08:33.759Z,99.90
2022-08-20T00:11:02.313Z,99.90
2022-08-20T00:13:37.051Z,99.90
2022-08-20T00:16:05.463Z,99.90
2022-08-20T00:18:32.508Z,99.90
2022-08-20T00:21:01.097Z,99.90
2022-08-20T00:23:28.340Z,99.90
2022-08-20T00:25:55.398Z,99.90
2022-08-20T00:28:22.429Z,99.90
2022-08-20T00:30:49.801Z,99.90
2022-08-20T00:33:21.808Z,99.90
2022-08-20T00:35:53.445Z,99.90
2022-08-20T00:38:20.811Z,99.90
2022-08-20T00:40:55.348Z,99.90
2022-08-20T00:43:31.079Z,99.90
2022-08-20T00:46:00.345Z,99.90
2022-08-20T00:48:32.001Z,99.90
2022-08-20T00:51:20.592Z,99.90
2022-08-20T00:53:47.980Z,99.90
2022-08-20T00:56:15.148Z,99.90
2022-08-20T00:58:44.787Z,99.90
2022-08-20T01:01:12.422Z,99.90
2022-08-20T01:03:42.335Z,99.90
2022-08-20T01:06:11.814Z,99.90
2022-08-20T01:08:40.089Z,99.90
2022-08-20T01:11:14.733Z,99.90
2022-08-20T01:13:42.942Z,99.90
2022-08-20T01:16:36.605Z,99.90
2022-08-20T01:19:29.784Z,99.90
2022-08-20T01:21:58.333Z,99.90
2022-08-20T01:24:36.572Z,99.90
2022-08-20T01:27:05.658Z,99.90
2022-08-20T01:29:39.678Z,99.90
2022-08-20T01:32:07.056Z,99.90
2022-08-20T01:34:34.070Z,99.90
2022-08-20T01:37:01.032Z,99.90
2022-08-20T01:39:31.868Z,99.90
2022-08-20T01:42:26.554Z,99.90
2022-08-20T01:44:53.812Z,99.90
2022-08-20T01:47:31.205Z,99.90
2022-08-20T01:50:16.362Z,99.90
2022-08-20T01:52:53.156Z,99.90
2022-08-20T01:55:20.192Z,99.90
2022-08-20T01:57:48.521Z,99.90
2022-08-20T02:00:19.733Z,99.90
2022-08-20T02:02:47.770Z,99.90
2022-08-20T02:05:14.750Z,99.90
2022-08-20T02:07:41.676Z,99.90
2022-08-20T02:10:12.427Z,99.90
2022-08-20T02:12:40.025Z,99.90
2022-08-20T02:15:09.620Z,99.90
2022-08-20T02:17:39.100Z,99.90
2022-08-20T02:20:16.276Z,99.90
2022-08-20T02:22:53.016Z,99.90
2022-08-20T02:25:28.756Z,99.90
2022-08-20T02:28:02.518Z,99.90
2022-08-20T02:30:33.454Z,99.90
2022-08-20T02:33:04.705Z,99.90
2022-08-20T02:35:33.085Z,99.90
2022-08-20T02:38:01.072Z,99.90
2022-08-20T02:40:30.942Z,99.90
2022-08-20T02:43:00.579Z,99.90
2022-08-20T02:45:28.485Z,99.90
2022-08-20T02:47:57.253Z,99.90
2022-08-20T02:50:26.045Z,99.90
2022-08-20T02:52:53.425Z,99.90
2022-08-20T02:55:25.138Z,99.90
2022-08-20T02:57:58.874Z,99.90
2022-08-20T03:00:28.209Z,99.90
2022-08-20T03:02:55.547Z,99.90
2022-08-20T03:05:22.510Z,99.90
2022-08-20T03:07:53.830Z,99.90
2022-08-20T03:10:31.006Z,99.90
2022-08-20T03:13:01.021Z,99.90
2022-08-20T03:15:28.911Z,99.90
2022-08-20T03:17:56.476Z,99.90
2022-08-20T03:20:24.482Z,99.90
2022-08-20T03:22:52.351Z,99.90
2022-08-20T03:25:19.522Z,99.90
2022-08-20T03:27:47.338Z,99.90
2022-08-20T03:30:21.307Z,99.90
2022-08-20T03:32:48.262Z,99.90
2022-08-20T03:35:17.809Z,99.90
2022-08-20T03:37:48.128Z,99.90
2022-08-20T03:40:31.484Z,99.90
2022-08-20T03:42:58.761Z,99.90
2022-08-20T03:45:27.694Z,99.90
2022-08-20T03:47:56.042Z,99.90
2022-08-20T03:50:26.937Z,99.90
2022-08-20T03:52:54.738Z,99.90
2022-08-20T03:55:23.728Z,99.90
2022-08-20T03:57:56.237Z,99.90
2022-08-20T04:00:27.503Z,99.90
2022-08-20T04:02:57.246Z,99.90
2022-08-20T04:05:29.134Z,99.90
2022-08-20T04:08:03.217Z,99.90
2022-08-20T04:10:30.757Z,99.90
2022-08-20T04:12:57.645Z,99.90
2022-08-20T04:15:24.580Z,99.90
2022-08-20T04:17:53.518Z,99.90
2022-08-20T04:20:23.835Z,99.90
2022-08-20T04:22:58.464Z,99.90
2022-08-20T04:25:29.698Z,99.90
2022-08-20T04:28:01.947Z,99.90
2022-08-20T04:30:29.948Z,99.90
2022-08-20T04:32:56.862Z,99.90
2022-08-20T04:35:26.728Z,99.90
2022-08-20T04:38:07.826Z,99.90
2022-08-20T04:40:58.194Z,99.90
2022-08-20T04:43:33.700Z,99.90
2022-08-20T04:46:06.220Z,99.90
2022-08-20T04:48:33.685Z,99.90
2022-08-20T04:51:02.452Z,99.90
2022-08-20T04:53:31.107Z,99.90
2022-08-20T04:56:00.404Z,99.90
2022-08-20T04:58:36.801Z,99.90
2022-08-20T05:01:10.012Z,99.90
2022-08-20T05:03:40.876Z,99.90
2022-08-20T05:06:09.478Z,99.90
2022-08-20T05:08:38.417Z,99.90
2022-08-20T05:11:32.597Z,99.90
2022-08-20T05:13:53.971Z,99.90
2022-08-20T05:16:21.388Z,99.90
2022-08-20T05:18:50.473Z,99.90
2022-08-20T05:21:20.433Z,99.90
2022-08-20T05:23:47.869Z,99.90
2022-08-20T05:26:16.006Z,99.90
2022-08-20T05:28:54.088Z,99.90
2022-08-20T05:31:31.529Z,99.90
2022-08-20T05:34:10.655Z,99.90
2022-08-20T05:36:45.391Z,99.90
2022-08-20T05:39:14.314Z,99.90
2022-08-20T05:41:41.691Z,99.90
2022-08-20T05:44:13.214Z,99.90
2022-08-20T05:46:42.728Z,99.90
2022-08-20T05:49:11.908Z,99.90
2022-08-20T05:51:38.931Z,99.90
2022-08-20T05:54:07.263Z,99.90
2022-08-20T05:56:34.916Z,99.90
2022-08-20T05:59:06.551Z,99.90
2022-08-20T06:01:35.754Z,99.90
2022-08-20T06:04:21.568Z,99.90
2022-08-20T06:06:48.758Z,99.90
2022-08-20T06:09:31.801Z,99.90
2022-08-20T06:12:06.203Z,99.90
2022-08-20T06:14:34.181Z,99.90
2022-08-20T06:17:15.250Z,99.90
2022-08-20T06:19:44.663Z,99.90
2022-08-20T06:22:18.540Z,99.90
2022-08-20T06:24:54.290Z,99.90
2022-08-20T06:27:22.170Z,99.90
2022-08-20T06:29:49.872Z,99.90
2022-08-20T06:32:18.199Z,99.90
2022-08-20T06:34:50.556Z,99.90
2022-08-20T06:37:30.807Z,99.90
2022-08-20T06:40:04.944Z,99.90
2022-08-20T06:42:31.934Z,99.90
2022-08-20T06:45:00.561Z,99.90
2022-08-20T06:47:27.616Z,99.90
2022-08-20T06:49:54.496Z,99.90
2022-08-20T06:52:27.130Z,99.90
2022-08-20T06:55:10.439Z,99.90
2022-08-20T06:57:38.183Z,96.60
2022-08-20T07:00:08.954Z,94.80
2022-08-20T07:02:37.359Z,92.30
2022-08-20T07:05:06.342Z,95.10
2022-08-20T07:07:34.572Z,96.00
2022-08-20T07:10:10.958Z,94.60
2022-08-20T07:12:38.273Z,95.00
2022-08-20T07:15:07.843Z,96.50
2022-08-20T07:17:35.655Z,99.90
2022-08-20T07:20:12.270Z,99.90
2022-08-20T07:22:39.392Z,99.90
2022-08-20T07:25:08.542Z,99.90
2022-08-20T07:27:35.633Z,99.90
2022-08-20T07:30:21.649Z,99.90
2022-08-20T07:32:49.256Z,99.90
2022-08-20T07:35:18.045Z,99.90
2022-08-20T07:37:48.920Z,99.90
2022-08-20T07:40:28.863Z,99.90
2022-08-20T07:42:58.592Z,99.90
2022-08-20T07:45:25.789Z,99.90
2022-08-20T07:47:56.228Z,99.90
2022-08-20T07:50:26.061Z,99.90
2022-08-20T07:52:53.369Z,99.90
2022-08-20T07:55:21.792Z,99.90
2022-08-20T07:57:50.313Z,99.90
2022-08-20T08:00:20.347Z,99.90
2022-08-20T08:02:47.496Z,99.90
2022-08-20T08:05:15.263Z,99.90
2022-08-20T08:07:43.082Z,99.90
2022-08-20T08:10:14.181Z,99.90
2022-08-20T08:12:45.197Z,99.90
2022-08-20T08:15:17.416Z,99.90
2022-08-20T08:17:47.191Z,99.90
2022-08-20T08:20:15.119Z,99.90
2022-08-20T08:22:42.961Z,99.90
2022-08-20T08:25:13.743Z,99.90
2022-08-20T08:27:41.328Z,99.90
2022-08-20T08:30:10.246Z,99.90
2022-08-20T08:32:58.200Z,99.90
2022-08-20T08:35:26.206Z,99.90
2022-08-20T08:37:54.104Z,99.90
2022-08-20T08:40:24.062Z,99.90
2022-08-20T08:42:58.346Z,99.90
2022-08-20T08:45:34.465Z,99.90
2022-08-20T08:48:01.963Z,99.90
2022-08-20T08:50:54.230Z,99.90
2022-08-20T08:53:27.962Z,99.90
2022-08-20T08:55:55.123Z,99.90
2022-08-20T08:58:22.370Z,99.90
2022-08-20T09:00:56.107Z,99.90
2022-08-20T09:03:33.004Z,99.90
2022-08-20T09:06:01.862Z,99.90
2022-08-20T09:08:40.442Z,99.90
2022-08-20T09:11:08.830Z,99.90
2022-08-20T09:13:35.885Z,99.90
2022-08-20T09:16:02.881Z,99.90
2022-08-20T09:18:29.849Z,99.90
2022-08-20T09:20:56.768Z,99.90
2022-08-20T09:23:24.052Z,99.90
2022-08-20T09:25:51.060Z,99.90
2022-08-20T09:28:18.129Z,99.90
2022-08-20T09:30:45.405Z,99.90
2022-08-20T09:33:13.420Z,99.90
2022-08-20T09:35:40.923Z,99.90
2022-08-20T09:38:08.194Z,99.90
2022-08-20T09:40:35.150Z,99.90
2022-08-20T09:43:03.554Z,99.90
2022-08-20T09:45:31.303Z,99.90
2022-08-20T09:47:58.581Z,99.90
2022-08-20T09:50:30.248Z,99.90
2022-08-20T09:52:59.585Z,99.90
2022-08-20T09:55:39.030Z,99.90
2022-08-20T09:58:43.362Z,99.90
2022-08-20T10:01:15.135Z,99.90
2022-08-20T10:03:43.523Z,99.90
2022-08-20T10:06:11.373Z,99.90
2022-08-20T10:08:38.800Z,99.90
2022-08-20T10:11:05.898Z,99.90
2022-08-20T10:13:32.824Z,99.90
2022-08-20T10:15:59.830Z,99.90
2022-08-20T10:18:26.748Z,99.90
2022-08-20T10:20:53.725Z,99.90
2022-08-20T10:23:20.602Z,99.90
2022-08-20T10:25:47.548Z,99.90
2022-08-20T10:28:14.571Z,99.90
2022-08-20T10:30:41.490Z,99.90
2022-08-20T10:33:08.374Z,99.90
2022-08-20T10:35:35.308Z,99.90
2022-08-20T10:38:02.367Z,99.90
2022-08-20T10:40:29.315Z,99.90
2022-08-20T10:42:56.208Z,99.90
2022-08-20T10:45:25.301Z,99.90
2022-08-20T10:47:52.445Z,99.90
2022-08-20T10:50:20.123Z,99.90
2022-08-20T10:52:47.645Z,99.90
2022-08-20T10:55:15.454Z,99.90
2022-08-20T10:57:43.397Z,99.90
2022-08-20T11:00:14.787Z,99.90
2022-08-20T11:02:41.773Z,99.90
2022-08-20T11:05:09.551Z,99.90
2022-08-20T11:07:54.822Z,99.90
2022-08-20T11:10:25.707Z,99.90
2022-08-20T11:12:52.706Z,99.90
2022-08-20T11:15:21.163Z,99.90
2022-08-20T11:17:48.165Z,99.90
2022-08-20T11:20:18.313Z,99.90
2022-08-20T11:22:45.314Z,99.90
2022-08-20T11:25:12.899Z,98.90
2022-08-20T11:27:45.089Z,97.10
2022-08-20T11:30:16.405Z,98.70
2022-08-20T11:32:43.610Z,99.90
2022-08-20T11:35:38.897Z,95.40
2022-08-20T11:37:59.111Z,97.20
2022-08-20T11:40:27.568Z,96.50
2022-08-20T11:43:13.513Z,96.00
2022-08-20T11:45:41.533Z,96.70
2022-08-20T11:48:08.613Z,98.40
2022-08-20T11:50:35.582Z,96.50
2022-08-20T11:53:03.538Z,96.20
2022-08-20T11:55:31.249Z,96.70
2022-08-20T11:58:00.558Z,98.50
2022-08-20T12:00:32.872Z,98.40
2022-08-20T12:03:08.968Z,97.70
2022-08-20T12:05:38.307Z,96.00
2022-08-20T12:08:06.240Z,97.50
2022-08-20T12:10:33.257Z,95.70
2022-08-20T12:13:00.521Z,96.40
2022-08-20T12:15:30.690Z,97.20
2022-08-20T12:17:57.870Z,94.10
2022-08-20T12:20:25.124Z,93.70
2022-08-20T12:22:53.986Z,92.80
2022-08-20T12:25:21.354Z,94.50
2022-08-20T12:27:48.249Z,94.40
2022-08-20T12:30:18.262Z,94.10
2022-08-20T12:32:45.466Z,94.60
2022-08-20T12:35:14.382Z,95.40
2022-08-20T12:37:42.128Z,93.50
2022-08-20T12:40:13.814Z,92.30
2022-08-20T12:42:41.092Z,93.80
2022-08-20T12:45:08.565Z,94.00
2022-08-20T12:47:38.018Z,95.00
2022-08-20T12:50:08.543Z,93.10
2022-08-20T12:52:35.782Z,93.00
2022-08-20T12:55:04.219Z,92.00
2022-08-20T12:57:34.857Z,93.30
2022-08-20T13:00:12.893Z,91.50
2022-08-20T13:02:41.289Z,91.80
2022-08-20T13:05:13.418Z,94.60
2022-08-20T13:07:42.162Z,92.50
2022-08-20T13:10:11.552Z,91.00
2022-08-20T13:12:38.554Z,88.90
2022-08-20T13:15:07.309Z,87.70
2022-08-20T13:17:38.927Z,89.30
2022-08-20T13:20:10.588Z,93.20
2022-08-20T13:22:37.877Z,90.30
2022-08-20T13:25:06.305Z,91.50
2022-08-20T13:27:33.337Z,91.10
2022-08-20T13:30:00.283Z,90.60
2022-08-20T13:32:27.424Z,90.90
2022-08-20T13:34:54.322Z,90.60
2022-08-20T13:37:25.468Z,91.50
2022-08-20T13:39:53.544Z,89.60
2022-08-20T13:42:21.198Z,93.40
2022-08-20T13:44:49.150Z,90.50
2022-08-20T13:47:21.700Z,91.40
2022-08-20T13:49:54.252Z,92.50
2022-08-20T13:52:21.336Z,92.70
2022-08-20T13:54:48.349Z,91.30
2022-08-20T13:57:17.705Z,91.50
2022-08-20T13:59:47.312Z,90.70
2022-08-20T14:02:16.371Z,90.80
2022-08-20T14:04:43.848Z,91.30
2022-08-20T14:07:20.014Z,90.90
2022-08-20T14:09:50.521Z,91.10
2022-08-20T14:12:17.749Z,91.20
2022-08-20T14:14:44.867Z,92.00
2022-08-20T14:17:24.594Z,92.60
2022-08-20T14:19:57.813Z,91.80
2022-08-20T14:22:28.442Z,92.50
2022-08-20T14:24:56.401Z,90.50
2022-08-20T14:27:27.781Z,90.50
2022-08-20T14:30:00.386Z,91.50
2022-08-20T14:32:28.361Z,88.10
2022-08-20T14:34:59.160Z,90.10
2022-08-20T14:37:30.835Z,89.80
2022-08-20T14:39:59.659Z,90.60
2022-08-20T14:42:28.311Z,90.00
2022-08-20T14:44:56.779Z,89.30
2022-08-20T14:47:29.753Z,89.40
2022-08-20T14:50:02.015Z,90.70
2022-08-20T14:52:29.389Z,90.00
2022-08-20T14:54:56.324Z,91.00
2022-08-20T14:57:23.719Z,91.60
2022-08-20T14:59:53.498Z,90.30
2022-08-20T15:02:20.684Z,90.10
2022-08-20T15:04:54.200Z,90.30
2022-08-20T15:07:28.401Z,90.70
2022-08-20T15:09:55.892Z,90.30
2022-08-20T15:12:23.597Z,89.10
2022-08-20T15:14:50.962Z,90.40
2022-08-20T15:17:22.533Z,91.10
2022-08-20T15:19:50.023Z,91.70
2022-08-20T15:22:18.103Z,93.00
2022-08-20T15:24:45.226Z,92.30
2022-08-20T15:27:20.378Z,91.00
2022-08-20T15:29:50.293Z,89.50
2022-08-20T15:32:17.712Z,89.70
2022-08-20T15:34:45.137Z,88.70
2022-08-20T15:37:23.188Z,90.70
2022-08-20T15:39:51.861Z,90.00
2022-08-20T15:42:20.737Z,91.30
2022-08-20T15:44:49.112Z,93.50
2022-08-20T15:47:27.337Z,92.80
2022-08-20T15:50:13.990Z,92.30
2022-08-20T15:52:45.546Z,93.30
2022-08-20T15:55:15.608Z,94.50
2022-08-20T15:57:48.142Z,94.30
2022-08-20T16:00:20.183Z,94.90
2022-08-20T16:03:19.041Z,94.60
2022-08-20T16:06:06.355Z,92.80
2022-08-20T16:08:46.357Z,92.80
2022-08-20T16:11:44.095Z,94.60
2022-08-20T16:14:16.460Z,94.00
2022-08-20T16:16:50.617Z,94.80
2022-08-20T16:19:35.382Z,94.30
2022-08-20T16:22:04.417Z,93.60
2022-08-20T16:24:32.388Z,94.40
2022-08-20T16:27:14.434Z,93.50
2022-08-20T16:30:20.791Z,92.80
2022-08-20T16:32:57.648Z,92.90
2022-08-20T16:35:49.946Z,91.70
2022-08-20T16:38:41.345Z,93.00
2022-08-20T16:41:24.417Z,93.60
2022-08-20T16:44:12.784Z,94.40
2022-08-20T16:46:50.337Z,95.60
2022-08-20T16:49:17.285Z,95.60
2022-08-20T16:51:53.037Z,95.60
2022-08-20T16:54:28.277Z,96.10
2022-08-20T16:57:01.504Z,96.60
2022-08-20T16:59:29.040Z,96.30
2022-08-20T17:02:07.030Z,96.00
2022-08-20T17:04:43.548Z,95.90
2022-08-20T17:07:40.281Z,96.10
2022-08-20T17:10:16.355Z,96.30
2022-08-20T17:12:44.566Z,96.90
2022-08-20T17:15:25.620Z,96.60
2022-08-20T17:17:55.687Z,96.70
2022-08-20T17:20:28.180Z,96.70
2022-08-20T17:23:09.765Z,97.20
2022-08-20T17:25:40.060Z,97.40
2022-08-20T17:28:18.482Z,98.00
2022-08-20T17:30:47.416Z,98.30
2022-08-20T17:33:29.604Z,98.80
2022-08-20T17:36:17.905Z,99.50
2022-08-20T17:38:49.077Z,99.90
2022-08-20T17:41:32.503Z,99.90
2022-08-20T17:44:06.619Z,99.90
2022-08-20T17:46:41.464Z,99.90
2022-08-20T17:49:11.509Z,99.90
2022-08-20T17:51:44.406Z,99.90
2022-08-20T17:54:28.591Z,99.90
2022-08-20T17:57:01.475Z,99.90
2022-08-20T18:00:00.021Z,99.90
2022-08-20T18:02:29.702Z,99.90
2022-08-20T18:04:57.150Z,99.90
2022-08-20T18:07:36.242Z,99.90
2022-08-20T18:10:22.486Z,99.90
2022-08-20T18:13:05.323Z,99.90
2022-08-20T18:15:38.494Z,99.90
2022-08-20T18:18:20.705Z,99.90
2022-08-20T18:21:14.676Z,99.90
2022-08-20T18:24:04.096Z,99.90
2022-08-20T18:26:42.715Z,99.90
2022-08-20T18:29:11.951Z,99.90
2022-08-20T18:31:53.525Z,99.90
2022-08-20T18:34:29.595Z,99.90
2022-08-20T18:37:04.391Z,99.90
2022-08-20T18:39:39.247Z,99.90
2022-08-20T18:42:22.795Z,99.90
2022-08-20T18:44:52.505Z,99.90
2022-08-20T18:47:32.103Z,99.90
2022-08-20T18:50:16.644Z,99.90
2022-08-20T18:53:18.833Z,99.90
2022-08-20T18:55:47.045Z,99.90
2022-08-20T18:58:31.376Z,99.90
2022-08-20T19:01:00.180Z,99.90
2022-08-20T19:03:48.552Z,99.90
2022-08-20T19:07:12.236Z,99.90
2022-08-20T19:10:02.071Z,99.90
2022-08-20T19:12:58.649Z,99.90
2022-08-20T19:15:26.705Z,99.90
2022-08-20T19:18:09.632Z,99.90
2022-08-20T19:20:39.395Z,99.90
2022-08-20T19:23:20.562Z,99.90
2022-08-20T19:26:25.705Z,99.90
2022-08-20T19:29:02.554Z,99.90
2022-08-20T19:31:33.363Z,99.90
2022-08-20T19:34:21.602Z,99.90
2022-08-20T19:36:58.826Z,99.90
2022-08-20T19:39:30.231Z,99.90
2022-08-20T19:42:16.826Z,99.90
2022-08-20T19:45:29.039Z,99.90
2022-08-20T19:48:27.759Z,99.90
2022-08-20T19:51:12.003Z,99.90
2022-08-20T19:53:46.422Z,99.90
2022-08-20T19:56:15.965Z,99.90
2022-08-20T19:58:43.933Z,99.90
2022-08-20T20:01:18.657Z,99.90
2022-08-20T20:04:06.716Z,99.90
2022-08-20T20:06:41.464Z,99.90
2022-08-20T20:09:22.272Z,99.90
2022-08-20T20:11:54.371Z,99.90
2022-08-20T20:14:25.727Z,99.90
2022-08-20T20:16:53.193Z,99.90
2022-08-20T20:19:26.725Z,99.90
2022-08-20T20:22:17.345Z,99.90
2022-08-20T20:24:50.807Z,99.90
2022-08-20T20:27:26.700Z,99.90
2022-08-20T20:30:22.380Z,99.90
2022-08-20T20:32:50.712Z,99.90
2022-08-20T20:35:33.727Z,99.90
2022-08-20T20:38:07.077Z,99.90
2022-08-20T20:40:50.637Z,99.90
2022-08-20T20:43:43.753Z,99.90
2022-08-20T20:46:21.109Z,99.90
2022-08-20T20:48:52.378Z,99.90
2022-08-20T20:51:29.197Z,99.90
2022-08-20T20:53:59.538Z,99.90
2022-08-20T20:56:36.989Z,99.90
2022-08-20T20:59:07.188Z,99.90
2022-08-20T21:01:47.990Z,99.90
2022-08-20T21:04:21.948Z,99.90
2022-08-20T21:06:50.163Z,99.90
2022-08-20T21:09:17.461Z,99.90
2022-08-20T21:11:44.495Z,99.90
2022-08-20T21:14:11.900Z,99.90
2022-08-20T21:16:39.107Z,99.90
2022-08-20T21:19:07.530Z,99.90
2022-08-20T21:21:34.520Z,99.90
2022-08-20T21:24:01.436Z,99.90
2022-08-20T21:26:29.004Z,99.90
2022-08-20T21:28:56.213Z,99.90
2022-08-20T21:31:29.912Z,99.90
2022-08-20T21:33:56.850Z,99.90
2022-08-20T21:36:23.819Z,99.90
2022-08-20T21:38:51.398Z,99.90
2022-08-20T21:41:18.924Z,99.90
2022-08-20T21:43:56.793Z,99.90
2022-08-20T21:46:24.999Z,99.90
2022-08-20T21:48:52.087Z,99.90
2022-08-20T21:51:18.981Z,99.90
2022-08-20T21:53:46.029Z,99.90
2022-08-20T21:56:12.985Z,99.90
2022-08-20T21:58:40.475Z,99.90
2022-08-20T22:01:08.104Z,99.90
2022-08-20T22:03:38.893Z,99.90
2022-08-20T22:06:09.781Z,99.90
2022-08-20T22:08:36.756Z,99.90
2022-08-20T22:11:04.969Z,99.90
2022-08-20T22:13:33.332Z,99.90
2022-08-20T22:16:02.846Z,99.90
2022-08-20T22:18:29.815Z,99.90
2022-08-20T22:20:56.996Z,99.90
2022-08-20T22:23:24.078Z,99.90
2022-08-20T22:25:51.194Z,99.90
2022-08-20T22:28:19.400Z,99.90
2022-08-20T22:30:47.342Z,99.90
2022-08-20T22:33:19.849Z,99.90
2022-08-20T22:35:50.393Z,99.90
2022-08-20T22:38:17.762Z,99.90
2022-08-20T22:40:45.081Z,99.90
2022-08-20T22:43:12.698Z,99.90
2022-08-20T22:45:41.071Z,99.90
2022-08-20T22:48:08.971Z,99.90
2022-08-20T22:50:37.480Z,99.90
2022-08-20T22:53:06.255Z,99.90
2022-08-20T22:55:33.625Z,99.90
2022-08-20T22:58:00.985Z,99.90
2022-08-20T23:00:28.150Z,99.90
2022-08-20T23:02:58.747Z,99.90
2022-08-20T23:05:27.708Z,99.90
2022-08-20T23:07:56.579Z,99.90
2022-08-20T23:10:24.487Z,99.90
2022-08-20T23:12:51.950Z,99.90
2022-08-20T23:15:19.170Z,99.90
2022-08-20T23:17:46.454Z,99.90
2022-08-20T23:20:18.412Z,99.90
2022-08-20T23:22:45.393Z,99.90
2022-08-20T23:25:13.839Z,99.90
2022-08-20T23:27:48.774Z,99.90
2022-08-20T23:30:19.053Z,99.90
2022-08-20T23:32:46.502Z,99.90
2022-08-20T23:35:13.622Z,99.90
2022-08-20T23:37:47.641Z,99.90
2022-08-20T23:40:16.279Z,99.90
2022-08-20T23:42:43.398Z,99.90
2022-08-20T23:45:11.249Z,99.90
2022-08-20T23:47:38.369Z,99.90
2022-08-20T23:50:07.497Z,99.90
2022-08-20T23:52:34.338Z,99.90
2022-08-20T23:55:01.346Z,99.90
2022-08-20T23:57:28.311Z,99.90
2022-08-20T23:59:55.871Z,99.90
